Challenge des Joggings de la ville de la ville Rochefort

La Corrida Des Joggeurs De Suzin - Rochefort (5.00 km)

samedi 02 novembre 2019

Vous pouvez trouver Le classement original sur : http://ultratiming.be  
CHALLENGE DES JOGGINGS DE LA VILLE DE ROCHEFORT
LA CORRIDA DES JOGGEURS DE SUZIN - ROCHEFORT
DISTANCE : 5.00 km
samedi 02 novembre 2019
 
Place dos NOM Catégorie Pl/cat temps temps/km Vitesse
01:00:00              
1 51 CLOSTER QUENTIN SEH 1 0:18:24 03:41 16.30
2 66 LAVIS THIBAUT SEH 2 0:18:38 03:44 16.10
3 87 DUMONT IGOR SEH 3 0:18:47 03:45 15.97
4 83 HAAG GUILLAUME SEH 4 0:19:17 03:51 15.55
5 1 ROSSION ARNAUD SEH 5 0:19:26 03:53 15.43
6 2 VERDIN JONATHAN SEH 6 0:19:47 03:57 15.16
7 44 LOMBA FLORENT SEH 7 0:20:23 04:05 14.71
8 45 LOMBA JEROME SEH 8 0:20:35 04:07 14.57
9 50 LUPCIN VICTOR SEH 9 0:20:45 04:09 14.45
10 58 POCHET BENOIT V1H 1 0:20:45 04:09 14.45
11 33 SEMAL GUILLAUME XXX   0:20:58 04:12 14.30
12 110 DEVIGNE GRÉGORY V1H 2 0:20:58 04:12 14.30
13 42 ROBIN MICHAEL V1H 3 0:21:00 04:12 14.28
14 10 DAMBIERMONT HENRI SEH 10 0:21:15 04:15 14.11
15 21 BONMARIAGE TIMOTHÉE SEH 11 0:21:16 04:15 14.10
16 53 PAULUN ESSIA SEF 1 0:21:20 04:16 14.06
17 28 JACQUEMIN VINCENT SEH 12 0:21:51 04:22 13.73
18 6 YANNOU PATRICK V2H 1 0:22:04 04:25 13.59
19 39 ROBIN NOAM XXX   0:22:20 04:28 13.43
20 69 GIAUX JEAN-JACQUES V2H 2 0:22:23 04:29 13.40
21 48 JADOT FREDERIC V1H 4 0:22:29 04:30 13.34
22 20 BIGNERON FLORIAN XXX   0:22:33 04:31 13.30
23 71 BOURCY ERIC V2H 3 0:22:36 04:31 13.27
24 8 COLLIGNON LORIN SEH 13 0:22:51 04:34 13.13
25 27 LECOMTE MAUREEN SEF 2 0:22:52 04:34 13.12
26 36 SELEMBER ALAIN V1H 5 0:22:58 04:36 13.06
27 16 GREGOIRE VIRGINIE V1F 1 0:23:06 04:37 12.98
28 116 LISSOIR NATHAN SEH 14 0:23:07 04:37 12.97
29 103 RENAULT LOUIS SEH 15 0:23:12 04:38 12.93
30 56 CLEMENT JIMMY SEH 16 0:23:19 04:40 12.86
31 52 COUQUELET ISABELLE V1F 2 0:23:24 04:41 12.82
32 85 DELOYER QUENTIN SEH 17 0:23:31 04:42 12.75
33 59 KINT MATHIS SEH 18 0:23:36 04:43 12.71
34 112 FREDDY V2H 4 0:23:49 04:46 12.59
35 55 CLOSTER MANON SEF 3 0:24:12 04:50 12.39
36 118 LISSOIR ERIC V1H 6 0:24:28 04:54 12.26
37 90 DELMAIL ALEXIS XXX   0:24:34 04:55 12.21
38 105 DETAIL LUCAS XXX   0:24:37 04:55 12.18
39 46 MARTIN JULIE SEF 4 0:24:39 04:56 12.17
40 63 WOLFCARIUS QUENTIN SEH 19 0:24:55 04:59 12.04
41 245 VAN DIONANT GAETAN V1H 7 0:24:58 05:00 12.01
42 70 VELLANDE BAUDOUIN V2H 5 0:25:00 05:00 12.00
43 121 GRUSLIN ROMAIN SEH 20 0:25:07 05:01 11.94
44 97 COLLIGNON LUCA SEH 21 0:25:11 05:02 11.91
45 98 GEUBEL LÉA XXX   0:25:12 05:02 11.90
46 86 DIEUDONNE RICHARD V1H 8 0:25:21 05:04 11.83
47 64 ESPINOZA MAURA SEF 5 0:25:29 05:06 11.77
48 99 RENAULT VINCENT V1H 9 0:25:30 05:06 11.76
49 11 DEMARS MATHYS XXX   0:25:41 05:08 11.68
50 108 COURTOIS SANDRINA V1F 3 0:25:50 05:10 11.61
51 26 ALIN LEONNIS XXX   0:25:56 05:11 11.57
52 7 COLLIGNON DIDIER V2H 6 0:25:59 05:12 11.54
53 3 LAHAUT KICK V2H 7 0:26:07 05:13 11.48
54 73 STREIGNARD JULIEN SEH 22 0:26:14 05:15 11.43
55 23 BONMARIAGE MARC V1H 10 0:26:33 05:19 11.30
56 41 ROUSSEAU STEPHANIE SEF 6 0:27:13 05:27 11.02
57 102 GILSON BEATRICE V1F 4 0:27:37 05:31 10.86
58 61 JACQUEMIN CHRISTOPHE SEH 23 0:27:54 05:35 10.75
59 72 MARECHAL THIBAULT XXX   0:27:59 05:36 10.72
60 60 FLAMME SEBASTIEN SEH 24 0:28:18 05:40 10.60
61 117 LISSOIR EUGÉNIE SEF 7 0:28:23 05:41 10.57
62 115 GERMAIN SOPHIE V1F 5 0:28:28 05:42 10.54
63 84 DELOYER ETIENNE V2H 8 0:28:47 05:45 10.42
64 34 SEMAL GREGOIRE XXX   0:28:58 05:48 10.35
65 35 SEMAL NICOLAS V1H 11 0:28:59 05:48 10.35
66 57 WAVREIL JEAN-PHILIPPE V2H 9 0:29:03 05:49 10.32
67 24 LECOCQ ELISE SEF 8 0:29:04 05:49 10.32
68 81 LEBRUN EMILIE SEF 9 0:29:18 05:52 10.24
69 109 BROLET VÉRONIQUE SEF 10 0:29:45 05:57 10.08
70 37 SCHLEISTER MARIE-FLORE V1F 6 0:29:59 06:00 10.00
71 14 DE GREEFF STÉPHANIE V1F 7 0:30:13 06:03 9.93
72 88 DEFAUN CATHERINE SEF 11 0:30:38 06:08 9.79
73 43 COULON CHRISTINE SEF 12 0:30:46 06:09 9.75
74 77 DUBOIS MAY SEF 13 0:30:53 06:11 9.71
75 120 LEBOUTTE VINCIANE V1F 8 0:31:31 06:18 9.52
76 19 JEANBAPTISTE ERIC V2H 10 0:31:32 06:19 9.51
77 113 COLEAU MATHÉO XXX   0:31:34 06:19 9.50
78 111 COLEAU JÉRÉMY SEH 25 0:31:34 06:19 9.50
79 62 JERGEAY ANNE V1F 9 0:31:46 06:21 9.44
80 80 RUIGLET REGINE V1F 10 0:32:16 06:27 9.30
81 79 JASCHKO GUILLAUME SEH 26 0:32:18 06:28 9.29
82 5 LEROY ANNE-MARIE V2F 1 0:32:25 06:29 9.25
83 22 BONMARIAGE SIXTINE SEF 14 0:32:51 06:34 9.13
84 93 GRÉGOIRE PATRICIA V1F 11 0:33:15 06:39 9.02
85 89 DELMAIL CYRIL XXX   0:33:16 06:39 9.02
86 91 VERBEKE CAROLINE SEF 15 0:33:16 06:39 9.02
87 114 GILLARD HENRI SEH 27 0:33:38 06:44 8.92
88 12 CHARNEUX ISALINE XXX   0:33:56 06:47 8.84
89 123 GREGOIRE EMMY SEF 16 0:35:16 07:03 8.50
90 231 LAMBOTTE JEAN-PASCAL XXX   0:38:34 07:43 7.78
91 122 BOSERET STEPHANE SEH 28 1:04:37 12:56 4.64